sensor_id;sensor_type;location;lat;lon;timestamp;P1;durP1;ratioP1;P2;durP2;ratioP2
20593;SDS011;10455;48.732;10.266;2023-07-20T00:00:21;5.68;;;2.10;;
20593;SDS011;10455;48.732;10.266;2023-07-20T00:05:23;3.05;;;2.10;;
20593;SDS011;10455;48.732;10.266;2023-07-20T00:10:26;4.53;;;2.47;;
20593;SDS011;10455;48.732;10.266;2023-07-20T00:15:28;3.60;;;2.50;;
20593;SDS011;10455;48.732;10.266;2023-07-20T00:20:29;4.13;;;2.17;;
20593;SDS011;10455;48.732;10.266;2023-07-20T00:25:33;3.65;;;2.03;;
20593;SDS011;10455;48.732;10.266;2023-07-20T00:30:35;3.92;;;2.60;;
20593;SDS011;10455;48.732;10.266;2023-07-20T00:35:39;4.28;;;2.78;;
20593;SDS011;10455;48.732;10.266;2023-07-20T00:40:42;8.88;;;2.58;;
20593;SDS011;10455;48.732;10.266;2023-07-20T00:45:44;5.60;;;2.63;;
20593;SDS011;10455;48.732;10.266;2023-07-20T00:50:46;6.95;;;2.75;;
20593;SDS011;10455;48.732;10.266;2023-07-20T00:55:50;5.47;;;2.58;;
20593;SDS011;10455;48.732;10.266;2023-07-20T01:00:52;8.02;;;2.88;;
20593;SDS011;10455;48.732;10.266;2023-07-20T01:05:55;4.07;;;2.95;;
20593;SDS011;10455;48.732;10.266;2023-07-20T01:11:06;8.18;;;3.00;;
20593;SDS011;10455;48.732;10.266;2023-07-20T01:16:14;5.90;;;3.35;;
20593;SDS011;10455;48.732;10.266;2023-07-20T01:21:18;4.00;;;2.88;;
20593;SDS011;10455;48.732;10.266;2023-07-20T01:26:36;4.90;;;3.13;;
20593;SDS011;10455;48.732;10.266;2023-07-20T01:31:52;4.55;;;2.88;;
20593;SDS011;10455;48.732;10.266;2023-07-20T01:36:55;3.30;;;3.00;;
20593;SDS011;10455;48.732;10.266;2023-07-20T01:41:58;5.95;;;3.28;;
20593;SDS011;10455;48.732;10.266;2023-07-20T01:47:02;5.05;;;3.00;;
20593;SDS011;10455;48.732;10.266;2023-07-20T01:52:04;4.40;;;3.42;;
20593;SDS011;10455;48.732;10.266;2023-07-20T01:57:07;6.28;;;3.22;;
20593;SDS011;10455;48.732;10.266;2023-07-20T02:02:10;4.53;;;2.78;;
20593;SDS011;10455;48.732;10.266;2023-07-20T02:07:12;6.43;;;2.92;;
20593;SDS011;10455;48.732;10.266;2023-07-20T02:12:14;4.35;;;2.90;;
20593;SDS011;10455;48.732;10.266;2023-07-20T02:17:17;4.32;;;2.75;;
20593;SDS011;10455;48.732;10.266;2023-07-20T02:22:19;5.85;;;3.00;;
20593;SDS011;10455;48.732;10.266;2023-07-20T02:27:21;3.72;;;3.20;;
20593;SDS011;10455;48.732;10.266;2023-07-20T02:32:24;3.95;;;3.30;;
20593;SDS011;10455;48.732;10.266;2023-07-20T02:37:26;3.22;;;2.92;;
20593;SDS011;10455;48.732;10.266;2023-07-20T02:42:27;3.40;;;2.80;;
20593;SDS011;10455;48.732;10.266;2023-07-20T02:47:31;3.28;;;3.08;;
20593;SDS011;10455;48.732;10.266;2023-07-20T02:52:33;3.03;;;2.70;;
20593;SDS011;10455;48.732;10.266;2023-07-20T02:57:52;3.22;;;2.90;;
20593;SDS011;10455;48.732;10.266;2023-07-20T03:02:55;3.53;;;2.80;;
20593;SDS011;10455;48.732;10.266;2023-07-20T03:07:57;3.80;;;3.35;;
20593;SDS011;10455;48.732;10.266;2023-07-20T03:12:59;5.10;;;3.00;;
20593;SDS011;10455;48.732;10.266;2023-07-20T03:18:02;4.47;;;3.60;;
20593;SDS011;10455;48.732;10.266;2023-07-20T03:23:04;3.43;;;3.13;;
20593;SDS011;10455;48.732;10.266;2023-07-20T03:28:06;3.90;;;3.37;;
20593;SDS011;10455;48.732;10.266;2023-07-20T03:33:09;4.67;;;3.13;;
20593;SDS011;10455;48.732;10.266;2023-07-20T03:38:11;3.80;;;2.90;;
20593;SDS011;10455;48.732;10.266;2023-07-20T03:43:13;4.77;;;3.30;;
20593;SDS011;10455;48.732;10.266;2023-07-20T03:48:16;3.70;;;3.17;;
20593;SDS011;10455;48.732;10.266;2023-07-20T03:53:20;4.47;;;3.07;;
20593;SDS011;10455;48.732;10.266;2023-07-20T03:58:21;5.40;;;3.57;;
20593;SDS011;10455;48.732;10.266;2023-07-20T04:03:25;5.67;;;3.33;;
20593;SDS011;10455;48.732;10.266;2023-07-20T04:08:27;4.87;;;3.43;;
20593;SDS011;10455;48.732;10.266;2023-07-20T04:13:29;3.33;;;3.00;;
20593;SDS011;10455;48.732;10.266;2023-07-20T04:18:34;4.30;;;3.33;;
20593;SDS011;10455;48.732;10.266;2023-07-20T04:23:36;4.57;;;3.63;;
20593;SDS011;10455;48.732;10.266;2023-07-20T04:28:38;3.53;;;3.20;;
20593;SDS011;10455;48.732;10.266;2023-07-20T04:33:43;4.37;;;3.53;;
20593;SDS011;10455;48.732;10.266;2023-07-20T04:38:45;5.07;;;3.40;;
20593;SDS011;10455;48.732;10.266;2023-07-20T04:43:47;4.30;;;3.20;;
20593;SDS011;10455;48.732;10.266;2023-07-20T04:48:51;3.30;;;3.00;;
20593;SDS011;10455;48.732;10.266;2023-07-20T04:53:52;3.80;;;3.40;;
20593;SDS011;10455;48.732;10.266;2023-07-20T04:58:54;4.77;;;3.27;;
20593;SDS011;10455;48.732;10.266;2023-07-20T05:03:58;6.05;;;3.28;;
20593;SDS011;10455;48.732;10.266;2023-07-20T05:09:00;3.58;;;3.28;;
20593;SDS011;10455;48.732;10.266;2023-07-20T05:14:02;6.15;;;3.17;;
20593;SDS011;10455;48.732;10.266;2023-07-20T05:19:05;9.20;;;3.60;;
20593;SDS011;10455;48.732;10.266;2023-07-20T05:24:07;7.93;;;3.10;;
20593;SDS011;10455;48.732;10.266;2023-07-20T05:29:09;5.85;;;3.30;;
20593;SDS011;10455;48.732;10.266;2023-07-20T05:34:12;9.43;;;3.20;;
20593;SDS011;10455;48.732;10.266;2023-07-20T05:39:14;4.75;;;2.88;;
20593;SDS011;10455;48.732;10.266;2023-07-20T05:44:17;6.50;;;2.90;;
20593;SDS011;10455;48.732;10.266;2023-07-20T05:49:21;5.70;;;2.92;;
20593;SDS011;10455;48.732;10.266;2023-07-20T05:54:23;7.70;;;2.92;;
20593;SDS011;10455;48.732;10.266;2023-07-20T05:59:26;10.00;;;3.10;;
20593;SDS011;10455;48.732;10.266;2023-07-20T06:04:30;8.10;;;3.35;;
20593;SDS011;10455;48.732;10.266;2023-07-20T06:09:32;10.93;;;3.30;;
20593;SDS011;10455;48.732;10.266;2023-07-20T06:14:34;5.82;;;3.05;;
20593;SDS011;10455;48.732;10.266;2023-07-20T06:19:38;7.63;;;3.03;;
20593;SDS011;10455;48.732;10.266;2023-07-20T06:24:39;6.57;;;2.90;;
20593;SDS011;10455;48.732;10.266;2023-07-20T06:29:41;7.63;;;3.03;;
20593;SDS011;10455;48.732;10.266;2023-07-20T06:34:44;7.05;;;3.00;;
20593;SDS011;10455;48.732;10.266;2023-07-20T06:39:47;4.28;;;2.78;;
20593;SDS011;10455;48.732;10.266;2023-07-20T06:44:49;5.47;;;2.85;;
20593;SDS011;10455;48.732;10.266;2023-07-20T06:49:52;3.95;;;2.50;;
20593;SDS011;10455;48.732;10.266;2023-07-20T06:54:54;3.92;;;2.50;;
20593;SDS011;10455;48.732;10.266;2023-07-20T06:59:56;2.58;;;2.38;;
20593;SDS011;10455;48.732;10.266;2023-07-20T07:04:59;2.63;;;2.20;;
20593;SDS011;10455;48.732;10.266;2023-07-20T07:10:01;3.13;;;2.20;;
20593;SDS011;10455;48.732;10.266;2023-07-20T07:15:06;4.85;;;2.40;;
20593;SDS011;10455;48.732;10.266;2023-07-20T07:20:12;2.85;;;2.05;;
20593;SDS011;10455;48.732;10.266;2023-07-20T07:25:14;3.63;;;2.20;;
20593;SDS011;10455;48.732;10.266;2023-07-20T07:30:16;4.05;;;2.10;;
20593;SDS011;10455;48.732;10.266;2023-07-20T07:35:19;3.25;;;2.08;;
20593;SDS011;10455;48.732;10.266;2023-07-20T07:40:21;2.88;;;2.22;;
20593;SDS011;10455;48.732;10.266;2023-07-20T07:45:23;5.28;;;2.33;;
20593;SDS011;10455;48.732;10.266;2023-07-20T07:50:26;4.05;;;2.17;;
20593;SDS011;10455;48.732;10.266;2023-07-20T07:55:28;3.15;;;2.22;;
20593;SDS011;10455;48.732;10.266;2023-07-20T08:00:30;4.35;;;2.10;;
20593;SDS011;10455;48.732;10.266;2023-07-20T08:05:34;3.15;;;1.90;;
20593;SDS011;10455;48.732;10.266;2023-07-20T08:10:36;4.55;;;1.85;;
20593;SDS011;10455;48.732;10.266;2023-07-20T08:15:38;3.97;;;2.15;;
20593;SDS011;10455;48.732;10.266;2023-07-20T08:20:41;2.35;;;2.15;;
20593;SDS011;10455;48.732;10.266;2023-07-20T08:25:45;4.72;;;2.53;;
20593;SDS011;10455;48.732;10.266;2023-07-20T08:30:48;4.78;;;2.10;;
20593;SDS011;10455;48.732;10.266;2023-07-20T08:35:52;2.65;;;1.90;;
20593;SDS011;10455;48.732;10.266;2023-07-20T08:40:54;3.78;;;2.08;;
20593;SDS011;10455;48.732;10.266;2023-07-20T08:45:56;2.80;;;1.98;;
20593;SDS011;10455;48.732;10.266;2023-07-20T08:50:59;4.78;;;2.25;;
20593;SDS011;10455;48.732;10.266;2023-07-20T08:56:04;3.40;;;2.08;;
20593;SDS011;10455;48.732;10.266;2023-07-20T09:01:07;4.00;;;2.30;;
20593;SDS011;10455;48.732;10.266;2023-07-20T09:06:11;3.03;;;2.20;;
20593;SDS011;10455;48.732;10.266;2023-07-20T09:11:13;3.25;;;1.90;;
20593;SDS011;10455;48.732;10.266;2023-07-20T09:16:15;2.53;;;1.83;;
20593;SDS011;10455;48.732;10.266;2023-07-20T09:21:18;5.50;;;2.13;;
20593;SDS011;10455;48.732;10.266;2023-07-20T09:26:20;3.30;;;1.90;;
20593;SDS011;10455;48.732;10.266;2023-07-20T09:31:22;2.47;;;1.92;;
20593;SDS011;10455;48.732;10.266;2023-07-20T09:36:27;2.05;;;1.80;;
20593;SDS011;10455;48.732;10.266;2023-07-20T09:41:29;2.80;;;2.33;;
20593;SDS011;10455;48.732;10.266;2023-07-20T09:46:43;4.93;;;2.45;;
20593;SDS011;10455;48.732;10.266;2023-07-20T09:51:47;4.75;;;2.45;;
20593;SDS011;10455;48.732;10.266;2023-07-20T09:56:50;2.72;;;2.05;;
20593;SDS011;10455;48.732;10.266;2023-07-20T10:01:53;5.03;;;2.35;;
20593;SDS011;10455;48.732;10.266;2023-07-20T10:06:58;2.78;;;1.83;;
20593;SDS011;10455;48.732;10.266;2023-07-20T10:12:04;3.50;;;2.05;;
20593;SDS011;10455;48.732;10.266;2023-07-20T10:17:08;4.60;;;2.00;;
20593;SDS011;10455;48.732;10.266;2023-07-20T10:22:18;7.38;;;2.30;;
20593;SDS011;10455;48.732;10.266;2023-07-20T10:27:23;3.42;;;2.15;;
20593;SDS011;10455;48.732;10.266;2023-07-20T10:32:25;3.42;;;2.10;;
20593;SDS011;10455;48.732;10.266;2023-07-20T10:42:56;4.28;;;2.28;;
20593;SDS011;10455;48.732;10.266;2023-07-20T10:47:59;2.63;;;2.00;;
20593;SDS011;10455;48.732;10.266;2023-07-20T10:53:06;2.55;;;1.98;;
20593;SDS011;10455;48.732;10.266;2023-07-20T10:58:13;2.30;;;2.10;;
20593;SDS011;10455;48.732;10.266;2023-07-20T11:03:24;2.20;;;2.00;;
20593;SDS011;10455;48.732;10.266;2023-07-20T11:08:39;3.05;;;1.90;;
20593;SDS011;10455;48.732;10.266;2023-07-20T11:13:53;2.75;;;1.90;;
20593;SDS011;10455;48.732;10.266;2023-07-20T11:18:55;2.58;;;2.13;;
20593;SDS011;10455;48.732;10.266;2023-07-20T11:24:02;2.50;;;1.92;;
20593;SDS011;10455;48.732;10.266;2023-07-20T11:29:04;3.45;;;2.50;;
20593;SDS011;10455;48.732;10.266;2023-07-20T11:34:07;3.42;;;2.08;;
20593;SDS011;10455;48.732;10.266;2023-07-20T11:39:12;2.70;;;2.20;;
20593;SDS011;10455;48.732;10.266;2023-07-20T11:44:15;4.35;;;2.38;;
20593;SDS011;10455;48.732;10.266;2023-07-20T11:49:17;3.53;;;1.88;;
20593;SDS011;10455;48.732;10.266;2023-07-20T11:54:20;2.88;;;2.03;;
20593;SDS011;10455;48.732;10.266;2023-07-20T11:59:22;3.28;;;2.20;;
20593;SDS011;10455;48.732;10.266;2023-07-20T12:04:25;3.03;;;2.28;;
20593;SDS011;10455;48.732;10.266;2023-07-20T12:09:28;3.45;;;2.35;;
20593;SDS011;10455;48.732;10.266;2023-07-20T12:14:30;6.18;;;2.30;;
20593;SDS011;10455;48.732;10.266;2023-07-20T12:19:32;2.50;;;2.05;;
20593;SDS011;10455;48.732;10.266;2023-07-20T12:24:40;2.25;;;2.03;;
20593;SDS011;10455;48.732;10.266;2023-07-20T12:29:42;2.67;;;2.25;;
20593;SDS011;10455;48.732;10.266;2023-07-20T12:34:44;2.90;;;2.15;;
20593;SDS011;10455;48.732;10.266;2023-07-20T12:39:47;2.40;;;2.20;;
20593;SDS011;10455;48.732;10.266;2023-07-20T12:44:49;2.97;;;2.45;;
20593;SDS011;10455;48.732;10.266;2023-07-20T12:49:51;3.92;;;2.80;;
20593;SDS011;10455;48.732;10.266;2023-07-20T12:54:54;3.45;;;2.42;;
20593;SDS011;10455;48.732;10.266;2023-07-20T12:59:57;4.07;;;2.45;;
20593;SDS011;10455;48.732;10.266;2023-07-20T13:04:58;2.90;;;2.15;;
20593;SDS011;10455;48.732;10.266;2023-07-20T13:10:02;2.35;;;2.15;;
20593;SDS011;10455;48.732;10.266;2023-07-20T13:15:05;4.45;;;2.65;;
20593;SDS011;10455;48.732;10.266;2023-07-20T13:20:08;3.42;;;2.47;;
20593;SDS011;10455;48.732;10.266;2023-07-20T13:25:14;3.60;;;2.15;;
20593;SDS011;10455;48.732;10.266;2023-07-20T13:30:15;2.30;;;2.10;;
20593;SDS011;10455;48.732;10.266;2023-07-20T13:35:17;3.13;;;2.20;;
20593;SDS011;10455;48.732;10.266;2023-07-20T13:40:21;2.92;;;2.20;;
20593;SDS011;10455;48.732;10.266;2023-07-20T13:45:23;3.55;;;2.28;;
20593;SDS011;10455;48.732;10.266;2023-07-20T13:50:25;3.78;;;2.30;;
20593;SDS011;10455;48.732;10.266;2023-07-20T13:55:30;2.88;;;2.63;;
20593;SDS011;10455;48.732;10.266;2023-07-20T14:00:33;2.90;;;2.00;;
20593;SDS011;10455;48.732;10.266;2023-07-20T14:05:35;2.58;;;2.17;;
20593;SDS011;10455;48.732;10.266;2023-07-20T14:10:38;2.38;;;2.10;;
20593;SDS011;10455;48.732;10.266;2023-07-20T14:15:40;2.47;;;2.25;;
20593;SDS011;10455;48.732;10.266;2023-07-20T14:20:42;3.97;;;2.10;;
20593;SDS011;10455;48.732;10.266;2023-07-20T14:25:46;2.45;;;2.10;;
20593;SDS011;10455;48.732;10.266;2023-07-20T14:30:47;2.28;;;2.00;;
20593;SDS011;10455;48.732;10.266;2023-07-20T14:35:49;2.00;;;1.80;;
20593;SDS011;10455;48.732;10.266;2023-07-20T14:40:53;2.78;;;1.98;;
20593;SDS011;10455;48.732;10.266;2023-07-20T14:45:55;2.25;;;1.83;;
20593;SDS011;10455;48.732;10.266;2023-07-20T14:50:57;3.05;;;1.90;;
20593;SDS011;10455;48.732;10.266;2023-07-20T14:56:00;2.45;;;1.67;;
20593;SDS011;10455;48.732;10.266;2023-07-20T15:01:03;3.65;;;2.00;;
20593;SDS011;10455;48.732;10.266;2023-07-20T15:06:09;2.13;;;1.90;;
20593;SDS011;10455;48.732;10.266;2023-07-20T15:11:13;1.92;;;1.83;;
20593;SDS011;10455;48.732;10.266;2023-07-20T15:16:15;7.13;;;2.30;;
20593;SDS011;10455;48.732;10.266;2023-07-20T15:21:17;3.70;;;1.80;;
20593;SDS011;10455;48.732;10.266;2023-07-20T15:26:20;2.20;;;1.90;;
20593;SDS011;10455;48.732;10.266;2023-07-20T15:31:22;2.30;;;1.90;;
20593;SDS011;10455;48.732;10.266;2023-07-20T15:36:24;2.92;;;1.70;;
20593;SDS011;10455;48.732;10.266;2023-07-20T15:41:27;2.33;;;1.80;;
20593;SDS011;10455;48.732;10.266;2023-07-20T15:51:47;2.40;;;1.88;;
20593;SDS011;10455;48.732;10.266;2023-07-20T15:56:50;11.65;;;2.05;;
20593;SDS011;10455;48.732;10.266;2023-07-20T16:01:53;3.03;;;1.70;;
20593;SDS011;10455;48.732;10.266;2023-07-20T16:06:55;2.85;;;1.70;;
20593;SDS011;10455;48.732;10.266;2023-07-20T16:11:58;6.20;;;2.00;;
20593;SDS011;10455;48.732;10.266;2023-07-20T16:17:00;3.10;;;1.90;;
20593;SDS011;10455;48.732;10.266;2023-07-20T16:22:03;2.42;;;1.98;;
20593;SDS011;10455;48.732;10.266;2023-07-20T16:27:07;3.35;;;1.90;;
20593;SDS011;10455;48.732;10.266;2023-07-20T16:32:09;2.53;;;1.80;;
20593;SDS011;10455;48.732;10.266;2023-07-20T16:37:10;2.00;;;1.80;;
20593;SDS011;10455;48.732;10.266;2023-07-20T16:42:14;2.67;;;2.03;;
20593;SDS011;10455;48.732;10.266;2023-07-20T16:47:15;2.95;;;2.08;;
20593;SDS011;10455;48.732;10.266;2023-07-20T16:52:17;2.70;;;2.08;;
20593;SDS011;10455;48.732;10.266;2023-07-20T16:57:21;3.67;;;1.92;;
20593;SDS011;10455;48.732;10.266;2023-07-20T17:02:23;2.30;;;2.10;;
20593;SDS011;10455;48.732;10.266;2023-07-20T17:07:25;2.72;;;1.85;;
20593;SDS011;10455;48.732;10.266;2023-07-20T17:12:28;3.22;;;2.00;;
20593;SDS011;10455;48.732;10.266;2023-07-20T17:17:30;2.22;;;2.03;;
20593;SDS011;10455;48.732;10.266;2023-07-20T17:22:32;3.88;;;2.13;;
20593;SDS011;10455;48.732;10.266;2023-07-20T17:27:36;2.45;;;2.13;;
20593;SDS011;10455;48.732;10.266;2023-07-20T17:32:38;3.88;;;1.90;;
20593;SDS011;10455;48.732;10.266;2023-07-20T17:37:40;2.85;;;1.88;;
20593;SDS011;10455;48.732;10.266;2023-07-20T17:42:44;4.40;;;2.22;;
20593;SDS011;10455;48.732;10.266;2023-07-20T17:47:46;2.78;;;2.10;;
20593;SDS011;10455;48.732;10.266;2023-07-20T17:52:48;2.20;;;2.00;;
20593;SDS011;10455;48.732;10.266;2023-07-20T17:57:54;3.83;;;2.28;;
20593;SDS011;10455;48.732;10.266;2023-07-20T18:02:56;3.42;;;2.15;;
20593;SDS011;10455;48.732;10.266;2023-07-20T18:07:58;2.42;;;2.00;;
20593;SDS011;10455;48.732;10.266;2023-07-20T18:13:02;3.78;;;2.30;;
20593;SDS011;10455;48.732;10.266;2023-07-20T18:18:03;4.70;;;2.22;;
20593;SDS011;10455;48.732;10.266;2023-07-20T18:23:05;3.20;;;1.88;;
20593;SDS011;10455;48.732;10.266;2023-07-20T18:28:09;2.75;;;2.10;;
20593;SDS011;10455;48.732;10.266;2023-07-20T18:33:10;3.25;;;2.33;;
20593;SDS011;10455;48.732;10.266;2023-07-20T18:38:12;2.20;;;2.00;;
20593;SDS011;10455;48.732;10.266;2023-07-20T18:43:15;45.17;;;6.25;;
20593;SDS011;10455;48.732;10.266;2023-07-20T18:48:17;42.85;;;6.35;;
20593;SDS011;10455;48.732;10.266;2023-07-20T18:53:19;65.90;;;7.57;;
20593;SDS011;10455;48.732;10.266;2023-07-20T18:58:23;15.80;;;3.83;;
20593;SDS011;10455;48.732;10.266;2023-07-20T19:03:24;7.40;;;2.70;;
20593;SDS011;10455;48.732;10.266;2023-07-20T19:08:27;3.95;;;2.60;;
20593;SDS011;10455;48.732;10.266;2023-07-20T19:13:30;4.30;;;2.58;;
20593;SDS011;10455;48.732;10.266;2023-07-20T19:18:32;2.47;;;2.28;;
20593;SDS011;10455;48.732;10.266;2023-07-20T19:23:37;5.03;;;2.42;;
20593;SDS011;10455;48.732;10.266;2023-07-20T19:28:42;7.60;;;2.90;;
20593;SDS011;10455;48.732;10.266;2023-07-20T19:33:43;4.40;;;2.72;;
20593;SDS011;10455;48.732;10.266;2023-07-20T19:38:45;2.72;;;2.53;;
20593;SDS011;10455;48.732;10.266;2023-07-20T19:43:49;3.55;;;2.30;;
20593;SDS011;10455;48.732;10.266;2023-07-20T19:48:51;4.30;;;2.40;;
20593;SDS011;10455;48.732;10.266;2023-07-20T19:53:53;2.83;;;2.53;;
20593;SDS011;10455;48.732;10.266;2023-07-20T19:58:56;3.55;;;2.20;;
20593;SDS011;10455;48.732;10.266;2023-07-20T20:03:58;5.17;;;2.63;;
20593;SDS011;10455;48.732;10.266;2023-07-20T20:08:59;4.60;;;2.73;;
20593;SDS011;10455;48.732;10.266;2023-07-20T20:14:03;2.87;;;2.57;;
20593;SDS011;10455;48.732;10.266;2023-07-20T20:19:05;3.30;;;3.00;;
20593;SDS011;10455;48.732;10.266;2023-07-20T20:24:10;3.30;;;2.57;;
20593;SDS011;10455;48.732;10.266;2023-07-20T20:29:13;2.67;;;2.47;;
20593;SDS011;10455;48.732;10.266;2023-07-20T20:34:15;3.60;;;2.70;;
20593;SDS011;10455;48.732;10.266;2023-07-20T20:39:17;2.97;;;2.60;;
20593;SDS011;10455;48.732;10.266;2023-07-20T20:44:20;3.97;;;3.00;;
20593;SDS011;10455;48.732;10.266;2023-07-20T20:49:26;2.60;;;2.17;;
20593;SDS011;10455;48.732;10.266;2023-07-20T20:54:28;3.80;;;2.53;;
20593;SDS011;10455;48.732;10.266;2023-07-20T20:59:32;3.30;;;2.70;;
20593;SDS011;10455;48.732;10.266;2023-07-20T21:04:37;2.87;;;2.67;;
20593;SDS011;10455;48.732;10.266;2023-07-20T21:09:39;2.80;;;2.43;;
20593;SDS011;10455;48.732;10.266;2023-07-20T21:14:42;2.97;;;2.67;;
20593;SDS011;10455;48.732;10.266;2023-07-20T21:19:44;2.90;;;2.70;;
20593;SDS011;10455;48.732;10.266;2023-07-20T21:24:46;3.10;;;2.63;;
20593;SDS011;10455;48.732;10.266;2023-07-20T21:29:49;3.17;;;2.30;;
20593;SDS011;10455;48.732;10.266;2023-07-20T21:34:51;2.87;;;2.67;;
20593;SDS011;10455;48.732;10.266;2023-07-20T21:39:53;2.53;;;2.30;;
20593;SDS011;10455;48.732;10.266;2023-07-20T21:44:57;3.67;;;2.70;;
20593;SDS011;10455;48.732;10.266;2023-07-20T21:50:02;2.80;;;2.60;;
20593;SDS011;10455;48.732;10.266;2023-07-20T21:55:04;3.03;;;2.73;;
20593;SDS011;10455;48.732;10.266;2023-07-20T22:00:09;4.40;;;2.83;;
20593;SDS011;10455;48.732;10.266;2023-07-20T22:05:12;2.87;;;2.57;;
20593;SDS011;10455;48.732;10.266;2023-07-20T22:10:14;3.30;;;3.00;;
20593;SDS011;10455;48.732;10.266;2023-07-20T22:15:17;5.30;;;3.10;;
20593;SDS011;10455;48.732;10.266;2023-07-20T22:20:19;5.83;;;3.00;;
20593;SDS011;10455;48.732;10.266;2023-07-20T22:25:21;3.53;;;2.80;;
20593;SDS011;10455;48.732;10.266;2023-07-20T22:30:24;4.03;;;2.90;;
20593;SDS011;10455;48.732;10.266;2023-07-20T22:35:26;3.53;;;3.23;;
20593;SDS011;10455;48.732;10.266;2023-07-20T22:40:28;3.40;;;3.07;;
20593;SDS011;10455;48.732;10.266;2023-07-20T22:45:34;4.37;;;3.40;;
20593;SDS011;10455;48.732;10.266;2023-07-20T22:50:40;3.43;;;2.83;;
20593;SDS011;10455;48.732;10.266;2023-07-20T22:55:44;2.93;;;2.63;;
20593;SDS011;10455;48.732;10.266;2023-07-20T23:00:49;3.20;;;2.80;;
20593;SDS011;10455;48.732;10.266;2023-07-20T23:05:51;4.03;;;2.80;;
20593;SDS011;10455;48.732;10.266;2023-07-20T23:10:53;3.57;;;2.90;;
20593;SDS011;10455;48.732;10.266;2023-07-20T23:15:56;4.10;;;2.93;;
20593;SDS011;10455;48.732;10.266;2023-07-20T23:20:58;4.73;;;2.87;;
20593;SDS011;10455;48.732;10.266;2023-07-20T23:26:00;5.10;;;3.13;;
20593;SDS011;10455;48.732;10.266;2023-07-20T23:31:04;3.37;;;3.07;;
20593;SDS011;10455;48.732;10.266;2023-07-20T23:36:06;3.33;;;3.03;;
20593;SDS011;10455;48.732;10.266;2023-07-20T23:41:08;3.53;;;2.73;;
20593;SDS011;10455;48.732;10.266;2023-07-20T23:46:12;4.10;;;3.00;;
20593;SDS011;10455;48.732;10.266;2023-07-20T23:51:20;3.47;;;3.17;;
20593;SDS011;10455;48.732;10.266;2023-07-20T23:56:23;3.83;;;3.33;;
